Latest Weather Observations for Naracoorte

IDS60801

Issued at 5:21 pm CST Thursday 9 April 2020 (issued every 10 minutes, with the page automatically refreshed every 10 minutes)

About weather observations | Map of weather stations | Latest weather observations for SA | Other Formats
Station Details ID: 026099 Name: NARACOORTE AERODROME Lat: -36.98 Lon: 140.73 Height: 49.72 m
Data from the previous 72 hours. | See also: Recent months at Naracoorte
Date/Time
CST
Temp
°C
App
Temp
°C
Dew
Point
°C
Rel
Hum
%
Delta-T
°C
Wind Press
QNH
hPa
Press
MSL
hPa
Rain since
9am
mm
Dir  Spd
km/h
Gust
km/h
Spd
kts
Gust
kts
09/05:00pm 22.9 20.5 8.6 40 7.6 ENE 11 13 6 7 1020.8 1020.7 0.0
09/04:30pm 23.7 22.5 8.2 37 8.2 NNW 4 11 2 6 1020.9 1020.8 0.0
09/04:00pm 23.0 20.6 8.7 40 7.6 E 11 17 6 9 1021.1 1021.0 0.0
09/03:30pm 24.1 22.1 8.5 37 8.3 N 9 17 5 9 1021.2 1021.1 0.0
09/03:00pm 23.9 21.9 8.7 38 8.1 ENE 9 15 5 8 1021.4 1021.3 0.0
09/02:30pm 23.6 21.6 8.8 39 7.9 NE 9 15 5 8 1021.6 1021.5 0.0
09/02:00pm 23.5 22.1 9.5 41 7.6 ESE 7 13 4 7 1022.0 1021.9 0.0
09/01:30pm 22.3 20.6 9.8 45 6.8 NE 9 17 5 9 1022.4 1022.3 0.0
09/01:00pm 22.4 20.9 9.2 43 7.1 ENE 7 13 4 7 1022.9 1022.8 0.0
09/12:30pm 21.7 18.7 9.3 45 6.6 NE 15 20 8 11 1023.6 1023.6 0.0
09/12:00pm 21.5 19.0 9.7 47 6.3 NE 13 26 7 14 1024.3 1024.3 0.0
09/11:30am 21.2 18.5 10.4 50 5.9 NNE 15 22 8 12 1024.7 1024.7 0.0
09/11:00am 20.8 17.8 10.6 52 5.6 NE 17 24 9 13 1025.0 1025.0 0.0
09/10:30am 19.8 17.7 11.3 58 4.7 ENE 13 20 7 11 1025.2 1025.2 0.0
09/10:00am 18.7 17.1 12.9 69 3.3 NE 13 20 7 11 1025.4 1025.4 0.0
09/09:30am 15.4 15.4 14.3 93 0.6 S 7 9 4 5 1025.8 1025.8 0.0
09/09:00am 11.9 11.0 11.3 96 0.3 S 7 7 4 4 1025.9 1025.9 0.0
09/08:30am 9.8 7.9 9.2 96 0.3 SSE 9 11 5 6 1026.2 1026.2 0.0
09/08:00am 8.4 5.8 7.8 96 0.3 SSE 11 13 6 7 1026.3 1026.3 0.0
09/07:30am 6.5 3.9 5.9 96 0.3 SSE 9 13 5 7 1026.1 1026.1 0.0
09/07:00am 5.1 2.6 4.5 96 0.3 SSE 7 9 4 5 1026.1 1026.1 0.0
09/06:30am 5.2 1.9 4.6 96 0.3 S 11 13 6 7 1025.8 1025.8 0.0
09/06:00am 5.5 2.6 4.9 96 0.3 SE 9 9 5 5 1025.7 1025.7 0.0
09/05:30am 6.0 3.3 5.4 96 0.3 SSE 9 13 5 7 1025.6 1025.6 0.0
09/05:00am 6.1 2.6 5.5 96 0.3 S 13 15 7 8 1025.6 1025.6 0.0
09/04:30am 5.8 3.4 5.1 95 0.3 SSE 7 9 4 5 1025.3 1025.3 0.0
09/04:00am 6.5 3.5 5.8 95 0.3 SE 11 13 6 7 1025.1 1025.1 0.0
09/03:30am 5.1 1.8 4.4 95 0.3 SE 11 13 6 7 1025.3 1025.3 0.0
09/03:00am 5.4 1.7 4.7 95 0.3 S 13 15 7 8 1025.1 1025.1 0.0
09/02:30am 5.9 3.4 5.0 94 0.4 SSE 7 9 4 5 1025.3 1025.3 0.0
09/02:00am 6.6 4.3 5.6 93 0.4 SE 7 11 4 6 1025.6 1025.6 0.0
09/01:30am 6.4 3.3 5.4 93 0.4 SSE 11 13 6 7 1025.8 1025.8 0.0
09/01:00am 7.0 3.2 5.9 93 0.5 SSE 15 17 8 9 1025.7 1025.7 0.0
09/12:30am 6.6 3.8 5.2 91 0.6 SE 9 11 5 6 1025.7 1025.7 0.0
09/12:00am 7.2 4.1 5.7 90 0.7 SSE 11 13 6 7 1025.7 1025.7 0.0
 
Date/Time
CST
Temp
°C
App
Temp
°C
Dew
Point
°C
Rel
Hum
%
Delta-T
°C
Wind Press
QNH
hPa
Press
MSL
hPa
Rain since
9am
mm
Dir  Spd
km/h
Gust
km/h
Spd
kts
Gust
kts
08/11:30pm 7.5 4.9 6.0 90 0.7 SSE 9 13 5 7 1025.9 1025.9 0.0
08/11:00pm 8.4 5.6 6.9 90 0.7 SSE 11 13 6 7 1026.1 1026.1 0.0
08/10:30pm 7.9 4.9 6.2 89 0.8 SSE 11 13 6 7 1026.1 1026.1 0.0
08/10:00pm 8.7 6.3 6.8 88 0.9 SSE 9 13 5 7 1026.2 1026.2 0.0
08/09:30pm 8.7 5.8 6.5 86 1.0 SSE 11 11 6 6 1026.1 1026.1 0.0
08/09:00pm 9.6 6.5 7.2 85 1.1 S 13 17 7 9 1026.0 1026.0 0.0
08/08:30pm 10.8 7.8 7.5 80 1.6 SSE 13 17 7 9 1026.0 1026.0 0.0
08/08:00pm 12.9 9.2 8.0 72 2.4 SSE 17 24 9 13 1025.7 1025.7 0.0
08/07:30pm 13.8 9.3 8.4 70 2.7 SE 22 28 12 15 1025.4 1025.4 0.0
08/07:00pm 14.2 10.1 8.8 70 2.7 SSE 20 28 11 15 1025.1 1025.1 0.0
08/06:30pm 14.6 10.9 9.4 71 2.7 SSE 19 28 10 15 1024.8 1024.8 0.0
08/06:00pm 14.8 10.9 9.4 70 2.8 SSE 20 26 11 14 1024.5 1024.5 0.0
08/05:30pm 16.7 10.9 9.4 62 3.8 SE 30 39 16 21 1024.3 1024.3 0.0
08/05:00pm 16.9 12.0 9.8 63 3.7 SSE 26 35 14 19 1024.0 1024.0 0.0
08/04:30pm 17.2 11.6 10.3 64 3.7 SSE 30 35 16 19 1023.9 1023.9 0.0
08/04:00pm 19.1 14.8 10.6 58 4.6 SSE 24 33 13 18 1023.7 1023.7 0.0
08/03:30pm 18.7 13.0 11.0 61 4.2 S 32 41 17 22 1023.7 1023.7 0.0
08/03:00pm 19.8 15.7 10.0 53 5.2 SSE 22 33 12 18 1023.6 1023.6 0.0
08/02:30pm 19.3 14.0 10.0 55 5.0 SSE 28 33 15 18 1023.6 1023.6 0.0
08/02:00pm 18.6 13.5 9.1 54 5.0 SSE 26 35 14 19 1023.8 1023.8 0.0
08/01:30pm 19.4 14.9 8.7 50 5.6 SE 22 32 12 17 1024.0 1024.0 0.0
08/01:00pm 18.5 13.7 9.0 54 5.0 SSE 24 32 13 17 1024.5 1024.5 0.0
08/12:30pm 18.0 13.2 8.8 55 4.8 SE 24 32 13 17 1025.0 1025.0 0.0
08/12:00pm 18.5 13.4 9.3 55 4.8 SE 26 37 14 20 1025.4 1025.4 0.0
08/11:30am 17.0 12.3 9.4 61 3.9 SE 24 30 13 16 1025.7 1025.7 0.0
08/11:00am 17.0 11.7 9.7 62 3.8 SE 28 37 15 20 1025.8 1025.8 0.0
08/10:30am 16.2 11.6 9.8 66 3.3 SSE 24 32 13 17 1026.1 1026.1 0.0
08/10:00am 15.1 10.5 9.5 69 2.9 SSE 24 30 13 16 1026.3 1026.3 0.0
08/09:30am 14.9 11.5 10.7 76 2.2 SSE 19 28 10 15 1026.3 1026.3 0.0
08/09:00am 13.4 9.8 10.4 82 1.6 S 20 24 11 13 1026.3 1026.3 0.0
08/08:30am 12.5 9.1 10.4 87 1.1 SSE 19 20 10 11 1026.0 1026.0 0.0
08/08:00am 10.9 8.0 9.7 92 0.6 SSE 15 19 8 10 1025.9 1025.9 0.0
08/07:30am 9.7 7.3 8.8 94 0.4 SSE 11 15 6 8 1025.6 1025.6 0.0
08/07:00am 7.7 4.1 6.8 94 0.4 SSE 15 15 8 8 1025.4 1025.4 0.0
08/06:30am 7.0 3.2 5.9 93 0.5 SSE 15 19 8 10 1025.0 1025.0 0.0
08/06:00am 7.6 3.9 6.4 92 0.5 SSE 15 17 8 9 1025.0 1025.0 0.0
08/05:30am 7.5 4.9 6.1 91 0.6 S 9 13 5 7 1024.9 1024.9 0.0
08/05:00am 8.4 4.8 6.7 89 0.8 SSE 15 17 8 9 1024.6 1024.6 0.0
08/04:30am 9.4 6.3 7.3 87 1.0 SSE 13 17 7 9 1024.4 1024.4 0.0
08/04:00am 10.2 6.9 8.1 87 1.0 SSE 15 19 8 10 1024.2 1024.2 0.0
08/03:30am 10.5 8.3 7.9 84 1.3 SE 9 13 5 7 1024.2 1024.2 0.0
08/03:00am 11.3 8.5 8.7 84 1.3 SSE 13 15 7 8 1024.2 1024.2 0.0
08/02:30am 11.3 8.9 8.5 83 1.4 SSE 11 13 6 7 1024.4 1024.4 0.0
08/02:00am 11.6 8.8 8.5 81 1.5 SSE 13 15 7 8 1024.7 1024.7 0.0
08/01:30am 11.4 9.0 8.8 84 1.3 SSE 11 15 6 8 1024.9 1024.9 0.0
08/01:00am 11.3 8.6 8.9 85 1.2 SSE 13 17 7 9 1024.7 1024.7 0.0
08/12:30am 11.1 8.7 8.5 84 1.3 S 11 13 6 7 1024.6 1024.6 0.0
08/12:00am 10.9 8.4 8.0 82 1.4 S 11 13 6 7 1024.1 1024.1 0.0
 
Date/Time
CST
Temp
°C
App
Temp
°C
Dew
Point
°C
Rel
Hum
%
Delta-T
°C
Wind Press
QNH
hPa
Press
MSL
hPa
Rain since
9am
mm
Dir  Spd
km/h
Gust
km/h
Spd
kts
Gust
kts
07/11:30pm 12.0 9.9 8.1 77 1.9 SSE 9 13 5 7 1024.3 1024.3 0.0
07/11:00pm 12.2 9.7 8.1 76 2.0 SE 11 13 6 7 1024.5 1024.5 0.0
07/10:30pm 12.4 9.1 8.1 75 2.1 SE 15 19 8 10 1024.5 1024.5 0.0
07/10:00pm 12.4 8.9 8.7 78 1.8 SE 17 20 9 11 1024.6 1024.6 0.0
07/09:30pm 10.9 8.1 8.5 85 1.2 SSE 13 17 7 9 1024.5 1024.5 0.0
07/09:00pm 10.5 8.0 8.3 86 1.1 SSE 11 13 6 7 1024.6 1024.6 0.0
07/08:30pm 10.9 8.0 8.0 82 1.4 SSE 13 15 7 8 1024.5 1024.5 0.0
07/08:00pm 11.7 8.5 8.4 80 1.6 SSE 15 19 8 10 1024.2 1024.2 0.0
07/07:30pm 10.3 7.6 7.4 82 1.4 SSE 11 13 6 7 1024.2 1024.2 0.0
07/07:00pm 11.6 8.3 8.1 79 1.7 S 15 17 8 9 1024.0 1024.0 0.0
07/06:30pm 12.8 10.2 7.9 72 2.4 SSE 11 15 6 8 1023.5 1023.5 0.0
07/06:00pm 13.5 10.2 7.9 69 2.8 S 15 19 8 10 1023.4 1023.3 0.0
07/05:30pm 14.4 10.6 7.5 63 3.4 S 17 20 9 11 1023.1 1023.0 0.0
07/05:00pm 15.1 12.0 7.2 59 3.9 SSE 13 17 7 9 1022.9 1022.8 0.0
07/04:30pm 15.2 11.3 7.3 59 3.9 SSE 17 20 9 11 1022.9 1022.8 0.0
07/04:00pm 15.4 12.2 6.9 57 4.2 SSE 13 17 7 9 1022.8 1022.7 0.0
07/03:30pm 15.4 11.8 6.7 56 4.2 S 15 19 8 10 1022.9 1022.8 0.0
07/03:00pm 15.4 11.8 6.7 56 4.2 SSE 15 19 8 10 1023.0 1022.9 0.0
07/02:30pm 15.4 12.2 6.7 56 4.2 SSE 13 17 7 9 1023.2 1023.1 0.0
07/02:00pm 15.3 12.7 6.3 55 4.4 SE 9 13 5 7 1023.4 1023.3 0.0
07/01:30pm 15.3 13.2 6.6 56 4.2 E 7 9 4 5 1023.6 1023.6 0.0
07/01:00pm 15.6 13.6 6.9 56 4.3 SE 7 17 4 9 1023.7 1023.7 0.0
07/12:30pm 15.4 13.1 5.6 52 4.7 ENE 7 11 4 6 1024.3 1024.3 0.0
07/12:00pm 15.1 12.7 5.3 52 4.6 E 7 11 4 6 1024.8 1024.8 0.0
07/11:30am 15.2 12.6 6.0 54 4.4 ENE 9 11 5 6 1025.0 1025.0 0.0
07/11:00am 14.8 12.6 6.1 56 4.2 E 7 13 4 7 1025.1 1025.1 0.0
07/10:30am 14.5 11.9 6.1 57 4.0 NE 9 13 5 7 1025.3 1025.3 0.0
07/10:00am 14.4 11.7 7.5 63 3.4 E 11 13 6 7 1025.3 1025.3 0.0
07/09:30am 14.0 11.3 7.5 65 3.2 E 11 15 6 8 1025.2 1025.2 0.0
07/09:00am 13.5 10.5 7.7 68 2.8 E 13 15 7 8 1025.3 1025.3 0.2
07/08:30am 13.1 10.5 7.8 70 2.6 ESE 11 13 6 7 1025.3 1025.3 0.2
07/08:00am 12.9 10.7 8.0 72 2.4 ESE 9 11 5 6 1025.1 1025.1 0.2
07/07:30am 12.5 10.7 8.0 74 2.2 ESE 7 9 4 5 1024.6 1024.6 0.2
07/07:00am 12.0 9.9 8.1 77 1.9 ESE 9 11 5 6 1024.3 1024.3 0.2
07/06:30am 11.9 10.1 8.0 77 1.9 ESE 7 9 4 5 1023.9 1023.9 0.2
07/06:00am 12.0 9.8 7.7 75 2.1 ESE 9 11 5 6 1023.7 1023.7 0.2
07/05:30am 12.0 10.1 7.5 74 2.2 ESE 7 9 4 5 1023.3 1023.2 0.2
07/05:00am 12.1 9.9 7.8 75 2.1 ESE 9 11 5 6 1023.1 1023.0 0.2
07/04:30am 12.1 9.9 7.8 75 2.1 SE 9 11 5 6 1023.1 1023.0 0.2
07/04:00am 12.2 9.6 7.9 75 2.1 ESE 11 13 6 7 1022.8 1022.7 0.2
07/03:30am 12.0 9.5 8.1 77 1.9 SE 11 13 6 7 1022.7 1022.6 0.2
07/03:00am 12.3 10.1 8.0 75 2.1 SE 9 11 5 6 1022.9 1022.8 0.2
07/02:30am 12.4 9.8 7.9 74 2.2 ESE 11 15 6 8 1023.0 1022.9 0.2
07/02:00am 12.5 10.0 8.0 74 2.2 ESE 11 13 6 7 1023.2 1023.1 0.2
07/01:30am 12.6 9.6 7.9 73 2.3 ESE 13 17 7 9 1023.2 1023.1 0.2
07/01:00am 12.6 9.3 7.9 73 2.3 ESE 15 19 8 10 1023.2 1023.1 0.2
07/12:30am 12.8 9.1 8.1 73 2.3 ESE 17 22 9 12 1023.1 1023.0 0.2
07/12:00am 13.0 9.8 8.3 73 2.3 ESE 15 20 8 11 1023.1 1023.0 0.2
 
Date/Time
CST
Temp
°C
App
Temp
°C
Dew
Point
°C
Rel
Hum
%
Delta-T
°C
Wind Press
QNH
hPa
Press
MSL
hPa
Rain since
9am
mm
Dir  Spd
km/h
Gust
km/h
Spd
kts
Gust
kts
06/11:30pm 12.8 10.1 9.1 78 1.9 SE 13 19 7 10 1023.3 1023.2 0.2
06/11:00pm 12.4 9.7 9.1 80 1.7 SSE 13 15 7 8 1023.7 1023.7 0.2
06/10:30pm 12.8 10.1 8.9 77 2.0 S 13 15 7 8 1023.8 1023.8 0.2
06/10:00pm 13.0 10.3 8.9 76 2.1 SSE 13 17 7 9 1023.7 1023.7 0.2
06/09:30pm 13.4 9.9 8.7 73 2.4 SSE 17 22 9 12 1023.5 1023.5 0.2
06/09:00pm 13.7 10.8 11.0 84 1.4 SSE 17 22 9 12 1023.4 1023.3 0.2
06/08:30pm 14.1 12.2 11.8 86 1.2 S 13 17 7 9 1023.3 1023.2 0.2
06/08:00pm 14.4 12.5 11.9 85 1.4 S 13 17 7 9 1023.0 1022.9 0.2
06/07:30pm 14.4 12.5 11.9 85 1.3 S 13 17 7 9 1023.0 1022.9 0.2
06/07:00pm 14.5 12.2 11.8 84 1.5 SSW 15 19 8 10 1022.8 1022.7 0.2
06/06:30pm 14.8 12.2 12.1 84 1.5 SW 17 20 9 11 1022.5 1022.4 0.2
06/06:00pm 16.3 16.6 10.8 70 2.9 CALM 0 0 0 0 1022.2 1022.1 0.2
06/05:30pm 16.4 16.6 10.5 68 3.1 CALM 0 0 0 0 1022.0 1021.9 0.2

Other formats

Comma delimited format used in spreadsheet applications
http://www.bom.gov.au/fwo/IDS60801/IDS60801.94820.axf

JavaScript Object Notation format (JSON) in row-major order
http://www.bom.gov.au/fwo/IDS60801/IDS60801.94820.json

Data quality

Most of these data are generated automatically and are frequently updated. Quality checks on data are not normally performed. It is possible for incorrect values to appear. Refer to information at About Latest Weather Observations and please check the disclaimer before using these data.